sensor_id;sensor_type;location;lat;lon;timestamp;P1;durP1;ratioP1;P2;durP2;ratioP2
66609;SDS011;53468;48.276;14.416;2023-02-05T00:02:01;2.92;;;1.52;;
66609;SDS011;53468;48.276;14.416;2023-02-05T00:07:03;2.38;;;1.50;;
66609;SDS011;53468;48.276;14.416;2023-02-05T00:12:07;5.30;;;1.33;;
66609;SDS011;53468;48.276;14.416;2023-02-05T00:17:09;3.00;;;1.33;;
66609;SDS011;53468;48.276;14.416;2023-02-05T00:22:11;6.32;;;1.50;;
66609;SDS011;53468;48.276;14.416;2023-02-05T00:27:15;3.53;;;1.38;;
66609;SDS011;53468;48.276;14.416;2023-02-05T00:32:17;2.83;;;1.08;;
66609;SDS011;53468;48.276;14.416;2023-02-05T00:37:19;3.38;;;1.15;;
66609;SDS011;53468;48.276;14.416;2023-02-05T00:42:22;4.65;;;1.67;;
66609;SDS011;53468;48.276;14.416;2023-02-05T00:47:24;5.43;;;1.60;;
66609;SDS011;53468;48.276;14.416;2023-02-05T00:52:27;2.80;;;1.30;;
66609;SDS011;53468;48.276;14.416;2023-02-05T00:57:30;2.40;;;1.27;;
66609;SDS011;53468;48.276;14.416;2023-02-05T01:02:32;1.65;;;0.75;;
66609;SDS011;53468;48.276;14.416;2023-02-05T01:07:35;2.88;;;1.38;;
66609;SDS011;53468;48.276;14.416;2023-02-05T01:12:38;2.35;;;0.95;;
66609;SDS011;53468;48.276;14.416;2023-02-05T01:17:40;3.15;;;0.98;;
66609;SDS011;53468;48.276;14.416;2023-02-05T01:22:42;2.42;;;0.90;;
66609;SDS011;53468;48.276;14.416;2023-02-05T01:27:46;1.60;;;0.90;;
66609;SDS011;53468;48.276;14.416;2023-02-05T01:32:48;2.90;;;1.20;;
66609;SDS011;53468;48.276;14.416;2023-02-05T01:37:50;3.55;;;1.15;;
66609;SDS011;53468;48.276;14.416;2023-02-05T01:42:53;2.50;;;1.20;;
66609;SDS011;53468;48.276;14.416;2023-02-05T01:47:55;3.25;;;1.08;;
66609;SDS011;53468;48.276;14.416;2023-02-05T01:52:59;3.33;;;1.40;;
66609;SDS011;53468;48.276;14.416;2023-02-05T01:58:07;1.85;;;1.13;;
66609;SDS011;53468;48.276;14.416;2023-02-05T02:03:10;3.55;;;1.55;;
66609;SDS011;53468;48.276;14.416;2023-02-05T02:08:13;2.67;;;1.30;;
66609;SDS011;53468;48.276;14.416;2023-02-05T02:13:18;2.95;;;1.35;;
66609;SDS011;53468;48.276;14.416;2023-02-05T02:18:22;2.72;;;1.25;;
66609;SDS011;53468;48.276;14.416;2023-02-05T02:23:27;4.57;;;1.90;;
66609;SDS011;53468;48.276;14.416;2023-02-05T02:28:40;3.85;;;1.90;;
66609;SDS011;53468;48.276;14.416;2023-02-05T02:33:47;5.80;;;1.85;;
66609;SDS011;53468;48.276;14.416;2023-02-05T02:38:56;2.88;;;1.88;;
66609;SDS011;53468;48.276;14.416;2023-02-05T02:44:09;3.50;;;1.70;;
66609;SDS011;53468;48.276;14.416;2023-02-05T02:49:16;2.00;;;1.08;;
66609;SDS011;53468;48.276;14.416;2023-02-05T02:54:21;1.92;;;1.48;;
66609;SDS011;53468;48.276;14.416;2023-02-05T02:59:28;2.88;;;1.50;;
66609;SDS011;53468;48.276;14.416;2023-02-05T03:04:33;3.00;;;1.35;;
66609;SDS011;53468;48.276;14.416;2023-02-05T03:09:40;1.73;;;1.15;;
66609;SDS011;53468;48.276;14.416;2023-02-05T03:14:48;3.45;;;1.40;;
66609;SDS011;53468;48.276;14.416;2023-02-05T03:19:52;5.88;;;2.33;;
66609;SDS011;53468;48.276;14.416;2023-02-05T03:24:59;3.60;;;1.55;;
66609;SDS011;53468;48.276;14.416;2023-02-05T03:30:04;2.90;;;1.55;;
66609;SDS011;53468;48.276;14.416;2023-02-05T03:35:12;3.45;;;1.65;;
66609;SDS011;53468;48.276;14.416;2023-02-05T03:40:24;2.65;;;1.13;;
66609;SDS011;53468;48.276;14.416;2023-02-05T03:45:36;3.20;;;1.48;;
66609;SDS011;53468;48.276;14.416;2023-02-05T03:50:48;5.18;;;1.10;;
66609;SDS011;53468;48.276;14.416;2023-02-05T03:55:55;6.30;;;1.65;;
66609;SDS011;53468;48.276;14.416;2023-02-05T04:01:04;4.18;;;2.00;;
66609;SDS011;53468;48.276;14.416;2023-02-05T04:06:08;5.97;;;2.60;;
66609;SDS011;53468;48.276;14.416;2023-02-05T04:11:11;4.55;;;3.05;;
66609;SDS011;53468;48.276;14.416;2023-02-05T04:16:16;8.20;;;2.40;;
66609;SDS011;53468;48.276;14.416;2023-02-05T04:21:18;5.00;;;2.75;;
66609;SDS011;53468;48.276;14.416;2023-02-05T04:26:20;3.13;;;1.75;;
66609;SDS011;53468;48.276;14.416;2023-02-05T04:31:23;6.15;;;2.58;;
66609;SDS011;53468;48.276;14.416;2023-02-05T04:36:25;5.57;;;2.05;;
66609;SDS011;53468;48.276;14.416;2023-02-05T04:41:27;4.03;;;2.13;;
66609;SDS011;53468;48.276;14.416;2023-02-05T04:46:31;5.38;;;2.08;;
66609;SDS011;53468;48.276;14.416;2023-02-05T04:51:33;3.60;;;2.10;;
66609;SDS011;53468;48.276;14.416;2023-02-05T04:56:35;3.35;;;2.20;;
66609;SDS011;53468;48.276;14.416;2023-02-05T05:01:40;5.32;;;2.30;;
66609;SDS011;53468;48.276;14.416;2023-02-05T05:06:42;7.32;;;2.78;;
66609;SDS011;53468;48.276;14.416;2023-02-05T05:11:44;5.75;;;2.35;;
66609;SDS011;53468;48.276;14.416;2023-02-05T05:16:48;5.57;;;2.42;;
66609;SDS011;53468;48.276;14.416;2023-02-05T05:21:50;5.90;;;2.40;;
66609;SDS011;53468;48.276;14.416;2023-02-05T05:26:52;8.65;;;3.38;;
66609;SDS011;53468;48.276;14.416;2023-02-05T05:31:56;5.75;;;2.83;;
66609;SDS011;53468;48.276;14.416;2023-02-05T05:36:58;6.25;;;2.47;;
66609;SDS011;53468;48.276;14.416;2023-02-05T05:42:00;6.60;;;2.67;;
66609;SDS011;53468;48.276;14.416;2023-02-05T05:47:21;7.65;;;2.40;;
66609;SDS011;53468;48.276;14.416;2023-02-05T05:52:23;6.03;;;2.65;;
66609;SDS011;53468;48.276;14.416;2023-02-05T05:57:25;5.68;;;2.38;;
66609;SDS011;53468;48.276;14.416;2023-02-05T06:02:29;5.82;;;2.95;;
66609;SDS011;53468;48.276;14.416;2023-02-05T06:07:31;4.13;;;2.80;;
66609;SDS011;53468;48.276;14.416;2023-02-05T06:12:33;8.57;;;2.88;;
66609;SDS011;53468;48.276;14.416;2023-02-05T06:17:36;6.57;;;2.67;;
66609;SDS011;53468;48.276;14.416;2023-02-05T06:22:38;7.18;;;3.17;;
66609;SDS011;53468;48.276;14.416;2023-02-05T06:27:41;7.95;;;2.75;;
66609;SDS011;53468;48.276;14.416;2023-02-05T06:32:44;4.75;;;2.85;;
66609;SDS011;53468;48.276;14.416;2023-02-05T06:37:46;7.28;;;3.25;;
66609;SDS011;53468;48.276;14.416;2023-02-05T06:42:48;6.57;;;3.50;;
66609;SDS011;53468;48.276;14.416;2023-02-05T06:47:53;7.03;;;4.18;;
66609;SDS011;53468;48.276;14.416;2023-02-05T06:52:56;8.27;;;4.50;;
66609;SDS011;53468;48.276;14.416;2023-02-05T06:57:58;8.43;;;4.20;;
66609;SDS011;53468;48.276;14.416;2023-02-05T07:03:02;7.53;;;3.17;;
66609;SDS011;53468;48.276;14.416;2023-02-05T07:08:04;7.82;;;3.25;;
66609;SDS011;53468;48.276;14.416;2023-02-05T07:13:06;5.47;;;2.85;;
66609;SDS011;53468;48.276;14.416;2023-02-05T07:18:10;4.43;;;2.90;;
66609;SDS011;53468;48.276;14.416;2023-02-05T07:23:12;7.30;;;2.65;;
66609;SDS011;53468;48.276;14.416;2023-02-05T07:28:14;4.22;;;2.53;;
66609;SDS011;53468;48.276;14.416;2023-02-05T07:33:18;6.85;;;3.72;;
66609;SDS011;53468;48.276;14.416;2023-02-05T07:38:20;7.88;;;3.08;;
66609;SDS011;53468;48.276;14.416;2023-02-05T07:43:24;5.15;;;2.53;;
66609;SDS011;53468;48.276;14.416;2023-02-05T07:48:28;3.88;;;2.10;;
66609;SDS011;53468;48.276;14.416;2023-02-05T07:53:30;4.93;;;2.58;;
66609;SDS011;53468;48.276;14.416;2023-02-05T07:58:32;5.97;;;2.00;;
66609;SDS011;53468;48.276;14.416;2023-02-05T08:03:36;4.07;;;2.05;;
66609;SDS011;53468;48.276;14.416;2023-02-05T08:08:45;6.88;;;1.92;;
66609;SDS011;53468;48.276;14.416;2023-02-05T08:13:47;5.32;;;2.45;;
66609;SDS011;53468;48.276;14.416;2023-02-05T08:18:51;4.28;;;2.13;;
66609;SDS011;53468;48.276;14.416;2023-02-05T08:23:53;7.85;;;2.45;;
66609;SDS011;53468;48.276;14.416;2023-02-05T08:28:56;6.25;;;2.45;;
66609;SDS011;53468;48.276;14.416;2023-02-05T08:34:00;3.88;;;1.95;;
66609;SDS011;53468;48.276;14.416;2023-02-05T08:39:02;4.78;;;2.42;;
66609;SDS011;53468;48.276;14.416;2023-02-05T08:44:04;5.57;;;2.60;;
66609;SDS011;53468;48.276;14.416;2023-02-05T08:49:07;2.65;;;1.80;;
66609;SDS011;53468;48.276;14.416;2023-02-05T08:54:10;5.43;;;2.17;;
66609;SDS011;53468;48.276;14.416;2023-02-05T08:59:14;3.13;;;1.77;;
66609;SDS011;53468;48.276;14.416;2023-02-05T09:04:19;3.28;;;1.45;;
66609;SDS011;53468;48.276;14.416;2023-02-05T09:09:22;3.20;;;1.80;;
66609;SDS011;53468;48.276;14.416;2023-02-05T09:14:25;3.47;;;1.77;;
66609;SDS011;53468;48.276;14.416;2023-02-05T09:19:28;4.32;;;1.77;;
66609;SDS011;53468;48.276;14.416;2023-02-05T09:24:31;4.35;;;2.10;;
66609;SDS011;53468;48.276;14.416;2023-02-05T09:29:35;4.28;;;1.80;;
66609;SDS011;53468;48.276;14.416;2023-02-05T09:34:38;4.35;;;2.20;;
66609;SDS011;53468;48.276;14.416;2023-02-05T09:39:41;4.05;;;1.70;;
66609;SDS011;53468;48.276;14.416;2023-02-05T09:44:45;5.38;;;3.38;;
66609;SDS011;53468;48.276;14.416;2023-02-05T09:50:00;3.85;;;1.73;;
66609;SDS011;53468;48.276;14.416;2023-02-05T09:55:13;3.95;;;1.90;;
66609;SDS011;53468;48.276;14.416;2023-02-05T10:00:23;3.13;;;1.65;;
66609;SDS011;53468;48.276;14.416;2023-02-05T10:05:31;5.20;;;2.40;;
66609;SDS011;53468;48.276;14.416;2023-02-05T10:10:39;4.57;;;1.90;;
66609;SDS011;53468;48.276;14.416;2023-02-05T10:15:48;3.33;;;1.73;;
66609;SDS011;53468;48.276;14.416;2023-02-05T10:21:03;5.72;;;2.33;;
66609;SDS011;53468;48.276;14.416;2023-02-05T10:26:14;45.65;;;18.73;;
66609;SDS011;53468;48.276;14.416;2023-02-05T10:31:21;4.63;;;1.58;;
66609;SDS011;53468;48.276;14.416;2023-02-05T10:36:29;3.33;;;1.45;;
66609;SDS011;53468;48.276;14.416;2023-02-05T10:41:34;3.05;;;1.40;;
66609;SDS011;53468;48.276;14.416;2023-02-05T10:46:39;3.15;;;1.48;;
66609;SDS011;53468;48.276;14.416;2023-02-05T10:51:44;3.67;;;1.50;;
66609;SDS011;53468;48.276;14.416;2023-02-05T10:56:46;5.85;;;1.70;;
66609;SDS011;53468;48.276;14.416;2023-02-05T11:01:49;3.63;;;1.48;;
66609;SDS011;53468;48.276;14.416;2023-02-05T11:06:53;6.50;;;1.85;;
66609;SDS011;53468;48.276;14.416;2023-02-05T11:11:55;5.88;;;1.75;;
66609;SDS011;53468;48.276;14.416;2023-02-05T11:17:01;2.75;;;1.67;;
66609;SDS011;53468;48.276;14.416;2023-02-05T11:22:10;3.65;;;1.33;;
66609;SDS011;53468;48.276;14.416;2023-02-05T11:27:30;3.97;;;1.77;;
66609;SDS011;53468;48.276;14.416;2023-02-05T11:32:33;3.03;;;1.80;;
66609;SDS011;53468;48.276;14.416;2023-02-05T11:37:39;7.18;;;3.50;;
66609;SDS011;53468;48.276;14.416;2023-02-05T11:42:41;4.82;;;2.33;;
66609;SDS011;53468;48.276;14.416;2023-02-05T11:47:50;3.25;;;2.10;;
66609;SDS011;53468;48.276;14.416;2023-02-05T11:52:54;4.43;;;2.40;;
66609;SDS011;53468;48.276;14.416;2023-02-05T11:58:09;4.55;;;2.28;;
66609;SDS011;53468;48.276;14.416;2023-02-05T12:03:20;3.63;;;2.08;;
66609;SDS011;53468;48.276;14.416;2023-02-05T12:08:29;3.35;;;2.22;;
66609;SDS011;53468;48.276;14.416;2023-02-05T12:18:46;9.40;;;3.53;;
66609;SDS011;53468;48.276;14.416;2023-02-05T12:24:01;6.80;;;2.83;;
66609;SDS011;53468;48.276;14.416;2023-02-05T12:29:20;4.65;;;2.28;;
66609;SDS011;53468;48.276;14.416;2023-02-05T12:34:39;4.78;;;2.20;;
66609;SDS011;53468;48.276;14.416;2023-02-05T12:39:49;4.65;;;2.10;;
66609;SDS011;53468;48.276;14.416;2023-02-05T12:45:00;8.65;;;4.47;;
66609;SDS011;53468;48.276;14.416;2023-02-05T12:50:15;3.50;;;2.45;;
66609;SDS011;53468;48.276;14.416;2023-02-05T12:55:35;8.00;;;4.03;;
66609;SDS011;53468;48.276;14.416;2023-02-05T13:00:47;9.65;;;4.68;;
66609;SDS011;53468;48.276;14.416;2023-02-05T13:05:53;4.03;;;2.00;;
66609;SDS011;53468;48.276;14.416;2023-02-05T13:11:01;7.90;;;4.22;;
66609;SDS011;53468;48.276;14.416;2023-02-05T13:16:11;8.07;;;3.35;;
66609;SDS011;53468;48.276;14.416;2023-02-05T13:21:17;5.50;;;3.22;;
66609;SDS011;53468;48.276;14.416;2023-02-05T13:26:40;5.47;;;2.63;;
66609;SDS011;53468;48.276;14.416;2023-02-05T13:32:03;5.47;;;2.88;;
66609;SDS011;53468;48.276;14.416;2023-02-05T13:43:08;9.60;;;1.90;;
66609;SDS011;53468;48.276;14.416;2023-02-05T13:54:26;5.68;;;2.92;;
66609;SDS011;53468;48.276;14.416;2023-02-05T13:59:53;7.32;;;3.10;;
66609;SDS011;53468;48.276;14.416;2023-02-05T14:04:56;7.15;;;2.33;;
66609;SDS011;53468;48.276;14.416;2023-02-05T14:10:00;5.43;;;2.75;;
66609;SDS011;53468;48.276;14.416;2023-02-05T14:20:35;3.72;;;2.10;;
66609;SDS011;53468;48.276;14.416;2023-02-05T14:31:17;4.22;;;2.42;;
66609;SDS011;53468;48.276;14.416;2023-02-05T14:36:46;5.18;;;2.78;;
66609;SDS011;53468;48.276;14.416;2023-02-05T14:41:51;4.57;;;1.85;;
66609;SDS011;53468;48.276;14.416;2023-02-05T14:47:04;4.97;;;2.20;;
66609;SDS011;53468;48.276;14.416;2023-02-05T14:52:19;2.42;;;2.00;;
66609;SDS011;53468;48.276;14.416;2023-02-05T14:57:40;4.75;;;2.30;;
66609;SDS011;53468;48.276;14.416;2023-02-05T15:02:57;6.15;;;2.30;;
66609;SDS011;53468;48.276;14.416;2023-02-05T15:08:24;5.45;;;2.78;;
66609;SDS011;53468;48.276;14.416;2023-02-05T15:13:39;3.85;;;2.45;;
66609;SDS011;53468;48.276;14.416;2023-02-05T15:18:43;6.00;;;2.70;;
66609;SDS011;53468;48.276;14.416;2023-02-05T15:23:48;4.70;;;3.03;;
66609;SDS011;53468;48.276;14.416;2023-02-05T15:28:55;9.18;;;2.17;;
66609;SDS011;53468;48.276;14.416;2023-02-05T15:34:04;4.57;;;2.45;;
66609;SDS011;53468;48.276;14.416;2023-02-05T15:44:28;8.55;;;3.00;;
66609;SDS011;53468;48.276;14.416;2023-02-05T15:49:35;5.07;;;2.40;;
66609;SDS011;53468;48.276;14.416;2023-02-05T15:54:40;5.57;;;2.67;;
66609;SDS011;53468;48.276;14.416;2023-02-05T15:59:42;4.90;;;2.40;;
66609;SDS011;53468;48.276;14.416;2023-02-05T16:04:52;3.45;;;2.42;;
66609;SDS011;53468;48.276;14.416;2023-02-05T16:09:57;4.38;;;2.78;;
66609;SDS011;53468;48.276;14.416;2023-02-05T16:15:00;5.70;;;2.92;;
66609;SDS011;53468;48.276;14.416;2023-02-05T16:20:10;5.78;;;2.75;;
66609;SDS011;53468;48.276;14.416;2023-02-05T16:25:21;7.10;;;3.00;;
66609;SDS011;53468;48.276;14.416;2023-02-05T16:30:36;6.82;;;2.80;;
66609;SDS011;53468;48.276;14.416;2023-02-05T16:35:43;8.70;;;3.55;;
66609;SDS011;53468;48.276;14.416;2023-02-05T16:40:48;9.82;;;4.68;;
66609;SDS011;53468;48.276;14.416;2023-02-05T16:46:02;24.13;;;10.15;;
66609;SDS011;53468;48.276;14.416;2023-02-05T16:51:36;16.92;;;8.32;;
66609;SDS011;53468;48.276;14.416;2023-02-05T16:56:55;18.60;;;9.55;;
66609;SDS011;53468;48.276;14.416;2023-02-05T17:02:01;14.57;;;7.88;;
66609;SDS011;53468;48.276;14.416;2023-02-05T17:07:14;14.80;;;7.13;;
66609;SDS011;53468;48.276;14.416;2023-02-05T17:17:47;23.73;;;10.93;;
66609;SDS011;53468;48.276;14.416;2023-02-05T17:23:11;17.42;;;8.40;;
66609;SDS011;53468;48.276;14.416;2023-02-05T17:28:16;21.55;;;10.23;;
66609;SDS011;53468;48.276;14.416;2023-02-05T17:33:20;48.50;;;17.58;;
66609;SDS011;53468;48.276;14.416;2023-02-05T17:38:25;34.45;;;11.93;;
66609;SDS011;53468;48.276;14.416;2023-02-05T17:43:27;19.42;;;5.75;;
66609;SDS011;53468;48.276;14.416;2023-02-05T17:48:29;5.50;;;2.75;;
66609;SDS011;53468;48.276;14.416;2023-02-05T17:53:33;8.73;;;3.00;;
66609;SDS011;53468;48.276;14.416;2023-02-05T17:58:35;7.07;;;2.90;;
66609;SDS011;53468;48.276;14.416;2023-02-05T18:03:37;8.68;;;2.05;;
66609;SDS011;53468;48.276;14.416;2023-02-05T18:08:41;4.13;;;2.50;;
66609;SDS011;53468;48.276;14.416;2023-02-05T18:13:43;11.13;;;2.42;;
66609;SDS011;53468;48.276;14.416;2023-02-05T18:18:45;6.80;;;2.60;;
66609;SDS011;53468;48.276;14.416;2023-02-05T18:23:49;4.72;;;2.15;;
66609;SDS011;53468;48.276;14.416;2023-02-05T18:28:52;7.95;;;2.17;;
66609;SDS011;53468;48.276;14.416;2023-02-05T18:33:54;6.78;;;2.40;;
66609;SDS011;53468;48.276;14.416;2023-02-05T18:38:57;4.85;;;1.90;;
66609;SDS011;53468;48.276;14.416;2023-02-05T18:43:59;7.65;;;2.42;;
66609;SDS011;53468;48.276;14.416;2023-02-05T18:49:03;11.05;;;2.80;;
66609;SDS011;53468;48.276;14.416;2023-02-05T18:54:07;5.25;;;2.28;;
66609;SDS011;53468;48.276;14.416;2023-02-05T18:59:12;12.25;;;3.30;;
66609;SDS011;53468;48.276;14.416;2023-02-05T19:04:17;5.63;;;2.83;;
66609;SDS011;53468;48.276;14.416;2023-02-05T19:09:22;5.60;;;2.83;;
66609;SDS011;53468;48.276;14.416;2023-02-05T19:14:25;4.13;;;2.10;;
66609;SDS011;53468;48.276;14.416;2023-02-05T19:19:28;2.90;;;2.05;;
66609;SDS011;53468;48.276;14.416;2023-02-05T19:24:32;6.82;;;2.72;;
66609;SDS011;53468;48.276;14.416;2023-02-05T19:29:35;6.70;;;3.15;;
66609;SDS011;53468;48.276;14.416;2023-02-05T19:34:40;5.47;;;2.58;;
66609;SDS011;53468;48.276;14.416;2023-02-05T19:39:46;4.63;;;2.47;;
66609;SDS011;53468;48.276;14.416;2023-02-05T19:44:48;5.97;;;2.70;;
66609;SDS011;53468;48.276;14.416;2023-02-05T19:49:51;5.88;;;2.78;;
66609;SDS011;53468;48.276;14.416;2023-02-05T19:54:54;7.97;;;3.25;;
66609;SDS011;53468;48.276;14.416;2023-02-05T19:59:56;6.03;;;3.17;;
66609;SDS011;53468;48.276;14.416;2023-02-05T20:04:58;5.63;;;2.88;;
66609;SDS011;53468;48.276;14.416;2023-02-05T20:10:02;6.65;;;3.03;;
66609;SDS011;53468;48.276;14.416;2023-02-05T20:15:05;10.57;;;3.08;;
66609;SDS011;53468;48.276;14.416;2023-02-05T20:20:09;8.13;;;3.90;;
66609;SDS011;53468;48.276;14.416;2023-02-05T20:25:13;10.70;;;3.72;;
66609;SDS011;53468;48.276;14.416;2023-02-05T20:30:16;9.57;;;3.75;;
66609;SDS011;53468;48.276;14.416;2023-02-05T20:35:36;10.52;;;4.53;;
66609;SDS011;53468;48.276;14.416;2023-02-05T20:40:40;7.50;;;4.15;;
66609;SDS011;53468;48.276;14.416;2023-02-05T20:45:42;7.75;;;3.28;;
66609;SDS011;53468;48.276;14.416;2023-02-05T20:50:44;7.28;;;3.55;;
66609;SDS011;53468;48.276;14.416;2023-02-05T20:55:48;9.10;;;3.17;;
66609;SDS011;53468;48.276;14.416;2023-02-05T21:00:50;7.57;;;3.13;;
66609;SDS011;53468;48.276;14.416;2023-02-05T21:05:55;7.13;;;3.45;;
66609;SDS011;53468;48.276;14.416;2023-02-05T21:10:58;7.15;;;3.05;;
66609;SDS011;53468;48.276;14.416;2023-02-05T21:16:01;5.60;;;3.10;;
66609;SDS011;53468;48.276;14.416;2023-02-05T21:21:04;5.15;;;2.83;;
66609;SDS011;53468;48.276;14.416;2023-02-05T21:26:15;7.57;;;2.67;;
66609;SDS011;53468;48.276;14.416;2023-02-05T21:31:19;6.90;;;3.20;;
66609;SDS011;53468;48.276;14.416;2023-02-05T21:36:21;5.43;;;2.55;;
66609;SDS011;53468;48.276;14.416;2023-02-05T21:41:26;4.35;;;2.17;;
66609;SDS011;53468;48.276;14.416;2023-02-05T21:46:28;5.40;;;2.58;;
66609;SDS011;53468;48.276;14.416;2023-02-05T21:51:32;6.20;;;2.40;;
66609;SDS011;53468;48.276;14.416;2023-02-05T21:56:37;4.68;;;2.45;;
66609;SDS011;53468;48.276;14.416;2023-02-05T22:01:40;3.95;;;1.73;;
66609;SDS011;53468;48.276;14.416;2023-02-05T22:12:00;5.72;;;2.83;;
66609;SDS011;53468;48.276;14.416;2023-02-05T22:17:03;6.75;;;2.63;;
66609;SDS011;53468;48.276;14.416;2023-02-05T22:22:05;3.33;;;1.83;;
66609;SDS011;53468;48.276;14.416;2023-02-05T22:27:08;4.85;;;2.00;;
66609;SDS011;53468;48.276;14.416;2023-02-05T22:32:11;5.30;;;2.40;;
66609;SDS011;53468;48.276;14.416;2023-02-05T22:37:13;5.00;;;1.90;;
66609;SDS011;53468;48.276;14.416;2023-02-05T22:42:16;3.17;;;1.85;;
66609;SDS011;53468;48.276;14.416;2023-02-05T22:47:18;3.67;;;1.80;;
66609;SDS011;53468;48.276;14.416;2023-02-05T22:52:20;8.60;;;1.83;;
66609;SDS011;53468;48.276;14.416;2023-02-05T22:57:24;4.32;;;1.77;;
66609;SDS011;53468;48.276;14.416;2023-02-05T23:02:26;3.65;;;1.80;;
66609;SDS011;53468;48.276;14.416;2023-02-05T23:07:28;5.60;;;2.03;;
66609;SDS011;53468;48.276;14.416;2023-02-05T23:12:32;5.13;;;2.13;;
66609;SDS011;53468;48.276;14.416;2023-02-05T23:17:34;6.18;;;2.70;;
66609;SDS011;53468;48.276;14.416;2023-02-05T23:22:36;19.58;;;2.75;;
66609;SDS011;53468;48.276;14.416;2023-02-05T23:27:41;8.10;;;2.35;;
66609;SDS011;53468;48.276;14.416;2023-02-05T23:32:44;5.80;;;2.65;;
66609;SDS011;53468;48.276;14.416;2023-02-05T23:37:46;6.70;;;2.95;;
66609;SDS011;53468;48.276;14.416;2023-02-05T23:42:50;6.60;;;3.33;;
66609;SDS011;53468;48.276;14.416;2023-02-05T23:47:52;8.93;;;3.70;;
66609;SDS011;53468;48.276;14.416;2023-02-05T23:52:55;6.00;;;2.88;;
66609;SDS011;53468;48.276;14.416;2023-02-05T23:57:59;7.22;;;2.78;;
